Home > Products > Valid Products > TAF

000
FTUS45 KPSR 292300
TAFIWA
TAF
KIWA 292320Z 3000/3024 28009KT P6SM FEW120 SCT250
     FM300800 12005KT P6SM FEW250
     FM301700 29009KT P6SM FEW120 SCT250
      AMD NOT SKED 3007/3012=



000
FTUS45 KPSR 292300
TAFPHX
TAF
KPHX 292320Z 3000/3024 27011KT P6SM FEW120 SCT250
     FM301200 12006KT P6SM SCT250
     FM301800 25010KT P6SM FEW120 SCT250=



000
FTUS45 KPSR 292300
TAFIPL
TAF
KIPL 292320Z 3000/3024 VRB04KT P6SM FEW120 SCT250
     FM300300 27011KT P6SM FEW250
     FM301000 VRB05KT P6SM FEW250=



000
FTUS45 KPSR 292300
TAFBLH
TAF
KBLH 292320Z 3000/3024 23009KT P6SM SCT250
     FM300900 VRB05KT P6SM FEW250
     FM301900 19009KT P6SM FEW250
      AMD NOT SKED=



000
FTUS45 KPSR 292100 AAB
TAFPHX
TAF AMD
KPHX 292120Z 2921/3018 27010KT P6SM FEW250
     FM301000 12006KT P6SM FEW250=



000
FTUS45 KPSR 292000 AAA
TAFPHX
TAF AMD
KPHX 292047Z 2921/3018 VRB06KT P6SM FEW250
     FM301000 13006KT P6SM FEW250=



000
FTUS45 KPSR 291700
TAFIWA
TAF
KIWA 291725Z 2918/3018 26009KT P6SM FEW250=



000
FTUS45 KPSR 291700
TAFBLH
TAF
KBLH 291725Z 2918/3018 22006KT P6SM FEW250
      TEMPO 2921/3001 21012KT
      AMD NOT SKED=



000
FTUS45 KPSR 291700
TAFIPL
TAF
KIPL 291725Z 2918/3018 27010KT P6SM FEW250
      TEMPO 3001/3005 27010G16KT=



000
FTUS45 KPSR 291700
TAFIWA
TAF
KIWA 291725Z 2918/3018 26009KT P6SM FEW250=



000
FTUS45 KPSR 291700
TAFPHX
TAF
KPHX 291725Z 2918/3018 VRB05KT P6SM FEW250
     FM292000 29010KT P6SM FEW250
     FM301000 14006KT P6SM FEW250=



000
FTUS45 KPSR 291500 AAB
TAFPHX
TAF AMD
KPHX 291503Z 2915/3012 VRB05KT P6SM FEW250
     FM292000 30010KT P6SM FEW250
     FM301000 11006KT P6SM FEW250=



000
FTUS45 KPSR 291400 AAA
TAFPHX
TAF AMD
KPHX 291428Z 2914/3012 30010KT P6SM FEW250
      TEMPO 2914/2917 VRB05KT=



000
FTUS45 KPSR 291100
TAFPHX
TAF
KPHX 291125Z 2912/3012 28010KT P6SM FEW250
      TEMPO 2913/2917 VRB05KT=



000
FTUS45 KPSR 291100
TAFBLH
TAF
KBLH 291125Z 2912/3012 20006KT P6SM FEW250
      TEMPO 2921/3001 21012KT=



000
FTUS45 KPSR 291100
TAFIWA
TAF
KIWA 291125Z 2912/3012 28009KT P6SM FEW250
      TEMPO 2912/2916 VRB05KT
      AMD LTD TO CLD VIS AND WIND TIL 291300=



000
FTUS45 KPSR 291100
TAFIPL
TAF
KIPL 291125Z 2912/3012 VRB03KT P6SM FEW250
     FM291600 28009KT P6SM FEW250
      TEMPO 3001/3005 27010G16KT=



000
FTUS45 KPSR 290800 AAA
TAFPHX
TAF AMD
KPHX 290854Z 2909/3006 33004KT P6SM FEW250
     FM291100 10005KT P6SM SCT250
     FM291800 26009KT P6SM FEW150 SCT250=



000
FTUS45 KPSR 290500
TAFBLH
TAF
KBLH 290533Z 2906/3006 VRB04KT P6SM FEW120
     FM291900 19009KT P6SM SCT250=



000
FTUS45 KPSR 290500
TAFIWA
TAF
KIWA 290533Z 2906/3006 31005KT P6SM FEW120 SCT250
     FM290700 12006KT P6SM SCT250
     FM291700 29008KT P6SM FEW120 SCT250
      AMD LTD TO CLD VIS AND WIND TIL 291300=



000
FTUS45 KPSR 290500
TAFIPL
TAF
KIPL 290533Z 2906/3006 27010KT P6SM FEW120
     FM291200 VRB05KT P6SM FEW250
     FM292300 26011KT P6SM FEW250=



000
FTUS45 KPSR 290500
TAFPHX
TAF
KPHX 290533Z 2906/3006 33007KT P6SM FEW120 SCT250
     FM291100 10005KT P6SM SCT250
     FM291800 26009KT P6SM FEW120 SCT250=



000
FTUS45 KPSR 290200 AAA
TAFPHX
TAF AMD
KPHX 290248Z 2903/2924 27008KT P6SM FEW120 SCT250
     FM290800 10006KT P6SM FEW120 SCT250
     FM291800 26008KT P6SM FEW120 SCT250=



000
FTUS45 KPSR 290200 AAA
TAFIPL
TAF AMD
KIPL 290222Z 2902/2924 VRB05KT P6SM FEW120 SCT250
     FM290400 27010KT P6SM FEW100 SCT250
     FM291200 VRB05KT P6SM FEW250=



000
FTUS45 KPSR 282300
TAFBLH
TAF
KBLH 282320Z 2900/2924 23010KT P6SM FEW120 SCT250
     FM290900 VRB05KT P6SM SCT250
     FM291900 19010KT P6SM SCT250=



000
FTUS45 KPSR 282300
TAFIPL
TAF
KIPL 282320Z 2900/2924 VRB05KT P6SM FEW100 SCT250
     FM290100 27010KT P6SM FEW100 SCT250
     FM291200 VRB05KT P6SM FEW250=



000
FTUS45 KPSR 282300
TAFPHX
TAF
KPHX 282320Z 2900/2924 25006KT P6SM FEW120 SCT250
     FM290800 10006KT P6SM FEW120 SCT250
     FM291800 26008KT P6SM FEW120 SCT250=



000
FTUS45 KPSR 282300
TAFIWA
TAF
KIWA 282320Z 2900/2924 27006KT P6SM FEW120 SCT250
     FM290500 12006KT P6SM FEW120 SCT250
     FM291700 29008KT P6SM FEW120 SCT250
      AMD LTD TO CLD VIS AND WIND 2903/2913=



000
FTUS45 KPSR 282300
TAFIWA
TAF
KIWA 282320Z 2900/2924 27006KT P6SM FEW120 SCT250
     FM290500 12006KT P6SM FEW120 SCT250
     FM291700 29008KT P6SM FEW120 SCT250
      AMD LTD TO CLD VIS AND WIND 2903/2913=



000
FTUS45 KPSR 281900 AAA
TAFPHX
TAF AMD
KPHX 281956Z 2820/2918 VRB04KT P6SM FEW150 BKN250
     FM282100 27006KT P6SM FEW150 SCT250
     FM290400 12006KT P6SM SCT150 BKN200=



000
FTUS45 KPSR 281700
TAFIWA
TAF
KIWA 281726Z 2818/2918 12005KT P6SM FEW150 BKN250
     FM282000 27006KT P6SM FEW150 SCT250
     FM290300 14006KT P6SM SCT150 BKN200=



000
FTUS45 KPSR 281700
TAFBLH
TAF
KBLH 281726Z 2818/2918 18010KT P6SM FEW150 SCT250
     FM290100 23010KT P6SM SCT150 BKN250
     FM291000 18005KT P6SM FEW150 SCT250=



000
FTUS45 KPSR 281700
TAFPHX
TAF
KPHX 281726Z 2818/2918 11005KT P6SM FEW150 BKN250
     FM282100 27006KT P6SM FEW150 SCT250
     FM290400 12006KT P6SM SCT150 BKN200=



000
FTUS45 KPSR 281700
TAFIPL
TAF
KIPL 281726Z 2818/2918 VRB06KT P6SM SCT250
     FM290100 26010KT P6SM FEW250
     FM291200 VRB05KT P6SM FEW250=



000
FTUS45 KPSR 281700
TAFIWA
TAF
KIWA 281726Z 2818/2918 12005KT P6SM FEW150 BKN250
     FM282000 27006KT P6SM FEW150 SCT250
     FM290300 14006KT P6SM SCT150 BKN200=



000
FTUS45 KPSR 281400 AAA
TAFPHX
TAF AMD
KPHX 281438Z 2815/2912 11005KT P6SM FEW150 SCT250
     FM282100 24006KT P6SM FEW150 SCT250
     FM290300 14006KT P6SM SCT120 BKN200=



000
FTUS45 KPSR 281100 CCA
TAFBLH
TAF COR
KBLH 281145Z 2812/2912 VRB06KT P6SM SCT250
     FM281900 18010KT P6SM FEW100 SCT150 BKN250
     FM290100 23010KT P6SM FEW150 SCT250=



000
FTUS45 KPSR 281100 RRA
TAFIWA
TAF
KIWA 281141Z 2812/2912 12008KT P6SM BKN150 OVC250
     FM282000 26007KT P6SM FEW150 SCT250
     FM290200 14007KT P6SM SCT120 BKN200
      AMD LTD TO CLD VIS AND WIND TIL 281300=



000
FTUS45 KPSR 281100 RRA
TAFBLH
TAF
KBLH 281141Z 2812/2912 18010KT P6SM FEW090 SCT200=



000
FTUS45 KPSR 281100 RRA
TAFIPL
TAF
KIPL 281141Z 2812/2912 24006KT P6SM SCT250
      TEMPO 2817/2821 12005KT
     FM290100 26012KT P6SM FEW250=



000
FTUS45 KPSR 281100 RRA
TAFPHX
TAF
KPHX 281141Z 2812/2912 12005KT P6SM BKN150 OVC250
     FM282100 24006KT P6SM FEW150 SCT250
     FM290300 14006KT P6SM SCT120 BKN200=



000
FTUS45 KPSR 281100 RRA
TAFIWA
TAF
KIWA 281141Z 2812/2912 12008KT P6SM BKN150 OVC250
     FM282000 26007KT P6SM FEW150 SCT250
     FM290200 14007KT P6SM SCT120 BKN200
      AMD LTD TO CLD VIS AND WIND TIL 281300=



000
FTUS45 KPSR 280900 AAA
TAFPHX
TAF AMD
KPHX 280910Z 2809/2906 15006KT P6SM BKN150 OVC250
     FM282100 24006KT P6SM FEW120 SCT250
     FM290200 14006KT P6SM FEW120 SCT200=



000
FTUS45 KPSR 280500 CCA
TAFIWA
TAF COR
KIWA 280558Z 2806/2906 12013G20KT P6SM VCTS BKN100CB BKN150
      TEMPO 2806/2807 -TSRA BKN090CB
     FM280800 12008KT P6SM BKN100 BKN150
     FM281700 18007KT P6SM FEW120 SCT250
     FM282200 29007KT P6SM FEW120 SCT200
     FM290200 14007KT P6SM FEW120 BKN200
      AMD LTD TO CLD VIS AND WIND TIL 281300=



000
FTUS45 KPSR 280500 CCA
TAFIWA
TAF COR
KIWA 280558Z 2806/2906 12013G20KT P6SM VCTS BKN100CB BKN150
      TEMPO 2806/2807 -TSRA BKN090CB
     FM280800 12008KT P6SM BKN100 BKN150
     FM281700 18007KT P6SM FEW120 SCT250
     FM282200 29007KT P6SM FEW120 SCT200
     FM290200 14007KT P6SM FEW120 BKN200
      AMD LTD TO CLD VIS AND WIND TIL 281300=



000
FTUS45 KPSR 280500
TAFBLH
TAF
KBLH 280540Z 2806/2906 18010KT P6SM FEW090 SCT200=



000
FTUS45 KPSR 280500
TAFIWA
TAF
KIWA 280540Z 2806/2906 12013G20KT P6SM VCTS BKN100CB BKN150
     FM280700 12008KT P6SM BKN100 BKN150
     FM281700 18007KT P6SM FEW120 SCT250
     FM282200 29007KT P6SM FEW120 SCT200
     FM290200 14007KT P6SM FEW120 BKN200
      AMD LTD TO CLD VIS AND WIND TIL 281300=



000
FTUS45 KPSR 280500
TAFIPL
TAF
KIPL 280540Z 2806/2906 14006KT P6SM FEW100 SCT250
     FM281800 26007KT P6SM FEW250=



000
FTUS45 KPSR 280500
TAFPHX
TAF
KPHX 280540Z 2806/2906 12012KT P6SM VCTS SCT100CB BKN150
      TEMPO 2806/2807 12018G27KT
     FM280800 12006KT P6SM BKN100 BKN150
     FM282000 24006KT P6SM FEW120 SCT250
     FM290200 14006KT P6SM FEW120 SCT200=



000
FTUS45 KPSR 280500
TAFIWA
TAF
KIWA 280540Z 2806/2906 12013G20KT P6SM VCTS BKN100CB BKN150
     FM280700 12008KT P6SM BKN100 BKN150
     FM281700 18007KT P6SM FEW120 SCT250
     FM282200 29007KT P6SM FEW120 SCT200
     FM290200 14007KT P6SM FEW120 BKN200
      AMD LTD TO CLD VIS AND WIND TIL 281300=



000
FTUS45 KPSR 280500 AAA
TAFIWA
TAF AMD
KIWA 280530Z 2805/2824 12013G20KT P6SM VCTS BKN100CB BKN150
      TEMPO 2805/2806 12020G32KT 2SM TSRA BLDU
     FM280700 12008KT P6SM BKN100 BKN150
     FM281800 25007KT P6SM FEW120 SCT250
      AMD LTD TO CLD VIS AND WIND TIL 281300=



000
FTUS45 KPSR 280500 AAA
TAFIWA
TAF AMD
KIWA 280530Z 2805/2824 12013G20KT P6SM VCTS BKN100CB BKN150
      TEMPO 2805/2806 12020G32KT 2SM TSRA BLDU
     FM280700 12008KT P6SM BKN100 BKN150
     FM281800 25007KT P6SM FEW120 SCT250
      AMD LTD TO CLD VIS AND WIND TIL 281300=



000
FTUS45 KPSR 280400 AAB
TAFPHX
TAF AMD
KPHX 280458Z 2805/2824 25006KT P6SM FEW100 SCT250
     FM280600 12012KT P6SM SCT100 BKN150
      TEMPO 2806/2807 12018G27KT
     FM280800 12006KT P6SM BKN100 BKN150
     FM281900 26008KT P6SM FEW120 SCT250=



000
FTUS45 KPSR 280400 AAC
TAFIWA
TAF AMD
KIWA 280451Z 2805/2824 29009KT P6SM FEW100 SCT200
     FM280500 12013G20KT P6SM VCTS BKN100CB BKN150
      TEMPO 2805/2806 12020G32KT 2SM BLDU
     FM280700 12008KT P6SM BKN100 BKN150
     FM281800 25007KT P6SM FEW120 SCT250
      AMD LTD TO CLD VIS AND WIND TIL 281300=



000
FTUS45 KPSR 280400 AAC
TAFIWA
TAF AMD
KIWA 280451Z 2805/2824 29009KT P6SM FEW100 SCT200
     FM280500 12013G20KT P6SM VCTS BKN100CB BKN150
      TEMPO 2805/2806 12020G32KT 2SM BLDU
     FM280700 12008KT P6SM BKN100 BKN150
     FM281800 25007KT P6SM FEW120 SCT250
      AMD LTD TO CLD VIS AND WIND TIL 281300=



000
FTUS45 KPSR 280400 AAB
TAFIWA
TAF AMD
KIWA 280444Z 2805/2824 29009KT P6SM FEW100 SCT200
     FM280500 12013G20KT P6SM VCTS BKN100CB BKN150
      TEMPO 2805/2806 12020G32KT
     FM280700 12008KT P6SM BKN100 BKN150
     FM281800 25007KT P6SM FEW120 SCT250
      AMD LTD TO CLD VIS AND WIND TIL 281300=



000
FTUS45 KPSR 280400 AAB
TAFIWA
TAF AMD
KIWA 280444Z 2805/2824 29009KT P6SM FEW100 SCT200
     FM280500 12013G20KT P6SM VCTS BKN100CB BKN150
      TEMPO 2805/2806 12020G32KT
     FM280700 12008KT P6SM BKN100 BKN150
     FM281800 25007KT P6SM FEW120 SCT250
      AMD LTD TO CLD VIS AND WIND TIL 281300=



000
FTUS45 KPSR 280200 AAA
TAFPHX
TAF AMD
KPHX 280245Z 2803/2824 27008KT P6SM FEW100 SCT250
     FM280600 12012KT P6SM SCT100 BKN150
     FM280800 12006KT P6SM BKN100 BKN150
     FM281900 26008KT P6SM FEW120 SCT250=



000
FTUS45 KPSR 280200 AAA
TAFIWA
TAF AMD
KIWA 280204Z 2802/2824 29009KT P6SM FEW100 SCT200
     FM280500 13012KT P6SM VCTS BKN100CB BKN150
     FM280700 12008KT P6SM BKN100 BKN150
     FM281800 25007KT P6SM FEW120 SCT250
      AMD LTD TO CLD VIS AND WIND 2803/2813=



000
FTUS45 KPSR 280200 AAA
TAFIWA
TAF AMD
KIWA 280204Z 2802/2824 29009KT P6SM FEW100 SCT200
     FM280500 13012KT P6SM VCTS BKN100CB BKN150
     FM280700 12008KT P6SM BKN100 BKN150
     FM281800 25007KT P6SM FEW120 SCT250
      AMD LTD TO CLD VIS AND WIND 2803/2813=



000
FTUS45 KPSR 272300
TAFBLH
TAF
KBLH 272321Z 2800/2824 18010KT P6SM FEW090 SCT200=



000
FTUS45 KPSR 272300
TAFPHX
TAF
KPHX 272321Z 2800/2824 27012G18KT P6SM FEW100 SCT250
     FM280500 12015KT P6SM BKN100 BKN150
     FM280700 12008KT P6SM BKN100 BKN150
     FM281900 26008KT P6SM FEW120 SCT250=



000
FTUS45 KPSR 272300
TAFIPL
TAF
KIPL 272321Z 2800/2824 14006KT P6SM FEW100 SCT250
     FM281800 VRB06KT P6SM FEW250=



000
FTUS45 KPSR 272300
TAFIWA
TAF
KIWA 272321Z 2800/2824 29011KT P6SM FEW100 SCT200
     FM280400 12015KT P6SM VCTS BKN100CB BKN150
     FM280700 12008KT P6SM BKN100 BKN150
     FM281800 25007KT P6SM FEW120 SCT250
      AMD LTD TO CLD VIS AND WIND 2803/2813=



000
FTUS45 KPSR 272300
TAFIWA
TAF
KIWA 272321Z 2800/2824 29011KT P6SM FEW100 SCT200
     FM280400 12015KT P6SM VCTS BKN100CB BKN150
     FM280700 12008KT P6SM BKN100 BKN150
     FM281800 25007KT P6SM FEW120 SCT250
      AMD LTD TO CLD VIS AND WIND 2803/2813=



000
FTUS45 KPSR 272200 AAA
TAFIPL
TAF AMD
KIPL 272219Z 2722/2818 VRB05KT P6SM SCT250
     FM280600 14006KT P6SM FEW100 SCT250=



000
FTUS45 KPSR 272000 AAB
TAFPHX
TAF AMD
KPHX 272014Z 2720/2818 27010KT P6SM FEW100 SCT200
     FM280400 12015KT P6SM VCTS BKN100CB BKN150
     FM280700 12010KT P6SM BKN100 BKN150=



000
FTUS45 KPSR 271800 AAA
TAFPHX
TAF AMD
KPHX 271833Z 2719/2818 VRB05KT P6SM SCT110 BKN250
     FM272100 27010KT P6SM FEW100 SCT200
     FM280400 12015KT P6SM VCTS BKN100CB BKN150
     FM280700 12010KT P6SM BKN100 BKN150=



000
FTUS45 KPSR 271700
TAFBLH
TAF
KBLH 271720Z 2718/2818 18010KT P6SM SCT080 BKN110=



000
FTUS45 KPSR 271700
TAFPHX
TAF
KPHX 271720Z 2718/2818 07010KT P6SM SCT110 BKN250
     FM272100 27010KT P6SM FEW100 SCT200
     FM280400 12015KT P6SM VCTS BKN100CB BKN150
     FM280700 12010KT P6SM BKN100 BKN150=



000
FTUS45 KPSR 271700
TAFIPL
TAF
KIPL 271720Z 2718/2818 14014KT P6SM VCTS BKN100CB
     FM271900 14010KT P6SM BKN100
     FM280700 VRB04KT P6SM BKN100=



000
FTUS45 KPSR 271700
TAFIWA
TAF
KIWA 271720Z 2718/2818 06010KT P6SM SCT110 BKN250
     FM272100 27010KT P6SM FEW100 SCT200
     FM280300 12015KT P6SM VCTS BKN100CB BKN150
     FM280700 12010KT P6SM BKN100 BKN150=



000
FTUS45 KPSR 271700
TAFIWA
TAF
KIWA 271720Z 2718/2818 06010KT P6SM SCT110 BKN250
     FM272100 27010KT P6SM FEW100 SCT200
     FM280300 12015KT P6SM VCTS BKN100CB BKN150
     FM280700 12010KT P6SM BKN100 BKN150=



000
FTUS45 KPSR 271500 AAC
TAFBLH
TAF AMD
KBLH 271539Z 2716/2812 14010KT P6SM SCT080 BKN110
     FM280300 21010KT P6SM BKN080 BKN150=



000
FTUS45 KPSR 271400 AAB
TAFIPL
TAF AMD
KIPL 271458Z 2715/2812 14015G30KT P6SM -TSRA BKN080CB
      TEMPO 2715/2717 4SM BLDU
     FM271700 14010KT P6SM BKN120
     FM280000 VRB04KT P6SM BKN100=



000
FTUS45 KPSR 271400 AAB
TAFPHX
TAF AMD
KPHX 271450Z 2715/2812 11007KT P6SM SCT110 BKN250
     FM271800 27010KT P6SM FEW100 SCT200
     FM280200 12015KT P6SM VCTS BKN100CB BKN150
     FM280700 12010KT P6SM BKN100 BKN150=



000
FTUS45 KPSR 271300 AAB
TAFBLH
TAF AMD
KBLH 271353Z 2714/2812 14015KT P6SM VCTS BKN080CB BKN150
     FM271900 14010KT P6SM BKN080 BKN150
     FM280300 21010KT P6SM BKN080 BKN150=



000
FTUS45 KPSR 271300 AAA
TAFBLH
TAF AMD
KBLH 271324Z 2713/2812 11025G30KT 2SM -TSRA HZ BKN080CB BKN150
     FM271500 14012KT P6SM VCTS BKN080CB BKN150
     FM280300 18010KT P6SM BKN080 BKN150=



000
FTUS45 KPSR 271300 AAA
TAFIPL
TAF AMD
KIPL 271319Z 2713/2812 14008KT P6SM FEW100 SCT250
     FM271400 14012G20KT P6SM -TSRA BKN080CB
     FM271800 21012KT P6SM VCTS BKN100CB
     FM280000 VRB04KT P6SM BKN100=



000
FTUS45 KPSR 271200 AAA
TAFIWA
TAF AMD
KIWA 271257Z 2713/2812 24009KT P6SM FEW100 SCT200
     FM280000 12015G25KT P6SM VCTS BKN100CB BKN150
     FM280500 12010KT P6SM BKN100 BKN150
      AMD LTD TO CLD VIS AND WIND TIL 271300=



000
FTUS45 KPSR 271200 AAA
TAFIWA
TAF AMD
KIWA 271257Z 2713/2812 24009KT P6SM FEW100 SCT200
     FM280000 12015G25KT P6SM VCTS BKN100CB BKN150
     FM280500 12010KT P6SM BKN100 BKN150
      AMD LTD TO CLD VIS AND WIND TIL 271300=



000
FTUS45 KPSR 271200 AAA
TAFPHX
TAF AMD
KPHX 271200Z 2712/2812 22012KT P6SM SCT150 BKN250
     FM271800 27010KT P6SM FEW100 SCT200
     FM280100 12015KT P6SM VCTS BKN100CB BKN150
     FM280700 12010KT P6SM BKN100 BKN150=



000
FTUS45 KPSR 271100 CCA
TAFBLH
TAF COR
KBLH 271146Z 2712/2812 18010KT P6SM FEW100 SCT250
     FM271300 14015KT P6SM -TSRA BKN080CB BKN150
     FM271600 14012KT P6SM VCTS BKN080CB BKN150
     FM280300 18010KT P6SM BKN080 BKN150=



000
FTUS45 KPSR 271100 CCA
TAFPHX
TAF COR
KPHX 271121Z 2712/2812 18015G25KT 3SM BLDU BKN150 OVC250
     FM271300 22008KT 6SM HZ SCT150 BKN250
     FM271800 27010KT P6SM FEW100 SCT200
     FM280100 12015KT P6SM VCTS BKN100CB BKN150
     FM280700 12010KT P6SM BKN100 BKN150=



000
FTUS45 KPSR 271100
TAFBLH
TAF
KBLH 271120Z 2712/2812 18010KT P6SM FEW100 SCT250
     FM271600 14015KT P6SM VCTS BKN080CB BKN150
     FM280300 18010KT P6SM BKN080 BKN150=



000
FTUS45 KPSR 271100
TAFIWA
TAF
KIWA 271120Z 2712/2812 24012G20KT 4SM BLDU FEW100 BKN150
     FM271400 24009KT P6SM FEW100 SCT200
     FM280000 12015G25KT P6SM VCTS BKN100CB BKN150
     FM280500 12010KT P6SM BKN100 BKN150
      AMD LTD TO CLD VIS AND WIND TIL 271300=



000
FTUS45 KPSR 271100
TAFIPL
TAF
KIPL 271120Z 2712/2812 14008KT P6SM FEW100 SCT250
     FM272000 21012KT P6SM VCTS BKN100CB
     FM280500 VRB04KT P6SM BKN100=



000
FTUS45 KPSR 271100
TAFIWA
TAF
KIWA 271120Z 2712/2812 24012G20KT 4SM BLDU FEW100 BKN150
     FM271400 24009KT P6SM FEW100 SCT200
     FM280000 12015G25KT P6SM VCTS BKN100CB BKN150
     FM280500 12010KT P6SM BKN100 BKN150
      AMD LTD TO CLD VIS AND WIND TIL 271300=



000
FTUS45 KPSR 271100
TAFPHX
TAF
KPHX 271120Z 2712/2812 18015G25KT 6SM HZ BKN150 OVC250
     FM271300 22008KT 6SM HZ SCT150 BKN250
     FM271800 27010KT P6SM FEW100 SCT200
     FM280100 12015KT P6SM VCTS BKN100CB BKN150
     FM280700 12010KT P6SM BKN100 BKN150=



000
FTUS45 KPSR 271000 AAD
TAFIWA
TAF AMD
KIWA 271022Z 2710/2806 12009KT P6SM FEW100 BKN150
     FM271100 24012G20KT 5SM BLDU FEW100 BKN150
     FM271300 VRB04KT P6SM FEW100 BKN150
     FM271700 26009KT P6SM FEW100 SCT200
     FM280200 12010KT P6SM VCSH SCT100 BKN150
      AMD LTD TO CLD VIS AND WIND TIL 271300=



000
FTUS45 KPSR 271000 AAD
TAFIWA
TAF AMD
KIWA 271022Z 2710/2806 12009KT P6SM FEW100 BKN150
     FM271100 24012G20KT 5SM BLDU FEW100 BKN150
     FM271300 VRB04KT P6SM FEW100 BKN150
     FM271700 26009KT P6SM FEW100 SCT200
     FM280200 12010KT P6SM VCSH SCT100 BKN150
      AMD LTD TO CLD VIS AND WIND TIL 271300=



000
FTUS45 KPSR 270800 AAC
TAFIWA
TAF AMD
KIWA 270844Z 2709/2806 12009KT P6SM FEW100 BKN150
     FM271700 26009KT P6SM FEW100 SCT200
     FM280200 12010KT P6SM VCSH SCT100 BKN150
      AMD LTD TO CLD VIS AND WIND TIL 271300=



000
FTUS45 KPSR 270800 AAC
TAFPHX
TAF AMD
KPHX 270843Z 2709/2806 09010KT P6SM SCT100 BKN200
     FM271800 27010KT P6SM FEW100 SCT200
     FM280300 12010KT P6SM VCSH SCT100 BKN150=



000
FTUS45 KPSR 270700 AAB
TAFPHX
TAF AMD
KPHX 270718Z 2707/2806 02012G18KT P6SM VCTS SCT080CB BKN120
     FM270745 30016G26KT P6SM SCT080 BKN120
     FM270830 VRB06KT P6SM SCT100 BKN200
     FM271000 09010KT P6SM SCT100 BKN200
     FM271800 27010KT P6SM FEW100 SCT200
     FM280300 12010KT P6SM SCT100 BKN150=



000
FTUS45 KPSR 270700 AAB
TAFIWA
TAF AMD
KIWA 270710Z 2707/2806 VRB06KT P6SM SCT080 BKN120
      TEMPO 2707/2708 31018G27KT
     FM270900 12009KT P6SM FEW100 BKN150
     FM271700 26009KT P6SM FEW100 SCT200
     FM280200 12010KT P6SM SCT100 BKN150
      AMD LTD TO CLD VIS AND WIND TIL 271300=



000
FTUS45 KPSR 270700 AAB
TAFIWA
TAF AMD
KIWA 270710Z 2707/2806 VRB06KT P6SM SCT080 BKN120
      TEMPO 2707/2708 31018G27KT
     FM270900 12009KT P6SM FEW100 BKN150
     FM271700 26009KT P6SM FEW100 SCT200
     FM280200 12010KT P6SM SCT100 BKN150
      AMD LTD TO CLD VIS AND WIND TIL 271300=



000
FTUS45 KPSR 270600 AAA
TAFIWA
TAF AMD
KIWA 270659Z 2707/2806 VRB06KT P6SM SCT080 BKN120
     FM270900 12009KT P6SM FEW100 BKN150
     FM271700 26009KT P6SM FEW100 SCT200
     FM280200 12010KT P6SM SCT100 BKN150
      AMD LTD TO CLD VIS AND WIND TIL 271300=



000
FTUS45 KPSR 270600 AAA
TAFIWA
TAF AMD
KIWA 270659Z 2707/2806 VRB06KT P6SM SCT080 BKN120
     FM270900 12009KT P6SM FEW100 BKN150
     FM271700 26009KT P6SM FEW100 SCT200
     FM280200 12010KT P6SM SCT100 BKN150
      AMD LTD TO CLD VIS AND WIND TIL 271300=



000
FTUS45 KPSR 270600 AAA
TAFPHX
TAF AMD
KPHX 270657Z 2707/2806 03012G18KT P6SM FEW080 SCT100 BKN150
     FM270800 09010KT P6SM SCT100 BKN200
     FM271800 27010KT P6SM FEW100 SCT200
     FM280300 12010KT P6SM SCT100 BKN150=



000
FTUS45 KPSR 270500 CCB
TAFPHX
TAF COR
KPHX 270557Z 2706/2806 11015G23KT P6SM VCTS SCT120CB BKN200
     FM270700 10007KT P6SM FEW120 BKN250
     FM271800 27010KT P6SM FEW100 SCT200
     FM280300 12010KT P6SM SCT100 BKN150=



000
FTUS45 KPSR 270500 CCA
TAFPHX
TAF COR
KPHX 270553Z 2706/2806 11013G19KT P6SM VCTS SCT120CB BKN200
     FM270700 10006KT P6SM FEW120 BKN250
     FM271800 27010KT P6SM FEW100 SCT200
     FM280300 12010KT P6SM SCT100 BKN150=



000
FTUS45 KPSR 270500 CCA
TAFIWA
TAF COR
KIWA 270551Z 2706/2806 09014G22KT 6SM BLDU VCTS SCT100CB BKN200
     FM270700 12010KT P6SM FEW120 BKN200
     FM271700 26009KT P6SM FEW100 SCT200
     FM280200 12010KT P6SM SCT100 BKN150
      AMD LTD TO CLD VIS AND WIND TIL 271300=



000
FTUS45 KPSR 270500
TAFBLH
TAF
KBLH 270520Z 2706/2806 24009KT P6SM FEW250
     FM270900 18009KT P6SM FEW100 SCT250=



000
FTUS45 KPSR 270500
TAFPHX
TAF
KPHX 270520Z 2706/2806 11012G18KT P6SM SCT120 BKN200
      TEMPO 2706/2707 11018G27KT 5SM BLDU
     FM270800 10006KT P6SM FEW120 BKN250
     FM271800 27010KT P6SM FEW100 SCT200
     FM280300 12010KT P6SM SCT100 BKN150=



000
FTUS45 KPSR 270500
TAFIPL
TAF
KIPL 270520Z 2706/2806 VRB05KT P6SM FEW150
     FM271000 14008KT P6SM FEW100 SCT250=



000
FTUS45 KPSR 270500
TAFIWA
TAF
KIWA 270520Z 2706/2806 10014G22KT 6SM BLDU VCTS SCT100CB BKN200
      TEMPO 2706/2707 1SM BLDU
     FM270700 12010KT P6SM FEW120 BKN200
     FM271700 26009KT P6SM FEW100 SCT200
     FM280200 12010KT P6SM SCT100 BKN150
      AMD LTD TO CLD VIS AND WIND TIL 271300=



000
FTUS45 KPSR 270500
TAFIWA
TAF
KIWA 270520Z 2706/2806 10014G22KT 6SM BLDU VCTS SCT100CB BKN200
      TEMPO 2706/2707 1SM BLDU
     FM270700 12010KT P6SM FEW120 BKN200
     FM271700 26009KT P6SM FEW100 SCT200
     FM280200 12010KT P6SM SCT100 BKN150
      AMD LTD TO CLD VIS AND WIND TIL 271300=



000
FTUS45 KPSR 270500 AAB
TAFIWA
TAF AMD
KIWA 270510Z 2705/2724 10018G28KT 3SM BLDU VCTS SCT120CB BKN200
      TEMPO 2705/2706 10023G32KT 1SM BLDU
     FM270700 12010KT P6SM FEW120 BKN200
     FM271700 26009KT P6SM FEW100 SCT200
      AMD LTD TO CLD VIS AND WIND TIL 271300=



000
FTUS45 KPSR 270500 AAB
TAFIWA
TAF AMD
KIWA 270510Z 2705/2724 10018G28KT 3SM BLDU VCTS SCT120CB BKN200
      TEMPO 2705/2706 10023G32KT 1SM BLDU
     FM270700 12010KT P6SM FEW120 BKN200
     FM271700 26009KT P6SM FEW100 SCT200
      AMD LTD TO CLD VIS AND WIND TIL 271300=



000
FTUS45 KPSR 270400 AAB
TAFPHX
TAF AMD
KPHX 270435Z 2705/2724 25010KT P6SM FEW100 BKN250
     FM270600 11010KT P6SM SCT120 BKN200
      TEMPO 2706/2707 11015G22KT
     FM271000 10006KT P6SM FEW120 BKN250
     FM271800 27010KT P6SM FEW100 SCT200=



000
FTUS45 KPSR 270400 AAA
TAFIWA
TAF AMD
KIWA 270425Z 2704/2724 27010KT P6SM SCT120 BKN250
     FM270500 10015G26KT P6SM SCT120 BKN200
      TEMPO 2705/2706 10023G32KT
     FM270700 12010KT P6SM FEW120 BKN200
     FM271700 26009KT P6SM FEW100 SCT200
      AMD LTD TO CLD VIS AND WIND TIL 271300=



000
FTUS45 KPSR 270400 AAA
TAFIWA
TAF AMD
KIWA 270425Z 2704/2724 27010KT P6SM SCT120 BKN250
     FM270500 10015G26KT P6SM SCT120 BKN200
      TEMPO 2705/2706 10023G32KT
     FM270700 12010KT P6SM FEW120 BKN200
     FM271700 26009KT P6SM FEW100 SCT200
      AMD LTD TO CLD VIS AND WIND TIL 271300=



000
FTUS45 KPSR 270200 AAA
TAFPHX
TAF AMD
KPHX 270243Z 2703/2724 25010KT P6SM FEW100 BKN250
     FM270600 VRB06KT P6SM SCT120 BKN200
     FM270700 10008KT P6SM FEW120 BKN250
     FM271800 27010KT P6SM FEW100 SCT200=



    US Dept of Commerce
    National Oceanic and Atmospheric Administration
    National Weather Service
    1325 East West Highway
    Silver Spring, MD 20910
    Page Author: NWS Internet Services Team
Disclaimer
Information Quality
Credits
Glossary
Privacy Policy
Freedom of Information Act (FOIA)
About Us
Career Opportunities